createdAt,value
2023-10-20T00:01:38.655Z,15.59
2023-10-20T00:04:05.882Z,15.49
2023-10-20T00:06:35.238Z,15.56
2023-10-20T00:09:04.978Z,15.56
2023-10-20T00:11:31.992Z,15.64
2023-10-20T00:13:58.763Z,15.69
2023-10-20T00:16:28.410Z,15.67
2023-10-20T00:18:55.509Z,15.64
2023-10-20T00:21:27.436Z,15.64
2023-10-20T00:23:55.249Z,15.64
2023-10-20T00:26:23.567Z,15.62
2023-10-20T00:28:51.108Z,15.62
2023-10-20T00:31:21.678Z,15.57
2023-10-20T00:33:51.574Z,15.57
2023-10-20T00:36:18.909Z,15.56
2023-10-20T00:38:45.983Z,15.56
2023-10-20T00:41:13.025Z,15.59
2023-10-20T00:43:41.639Z,15.63
2023-10-20T00:46:09.992Z,15.62
2023-10-20T00:48:37.491Z,15.59
2023-10-20T00:51:08.865Z,15.57
2023-10-20T00:53:36.904Z,15.67
2023-10-20T00:56:07.179Z,15.59
2023-10-20T00:58:34.563Z,15.57
2023-10-20T01:01:05.688Z,15.63
2023-10-20T01:03:37.185Z,15.63
2023-10-20T01:06:05.158Z,15.62
2023-10-20T01:08:32.164Z,15.62
2023-10-20T01:10:59.471Z,15.69
2023-10-20T01:13:26.900Z,15.63
2023-10-20T01:15:55.230Z,15.63
2023-10-20T01:18:22.411Z,15.70
2023-10-20T01:20:49.361Z,15.76
2023-10-20T01:23:18.545Z,15.62
2023-10-20T01:25:45.330Z,15.71
2023-10-20T01:28:15.805Z,15.71
2023-10-20T01:30:43.825Z,15.76
2023-10-20T01:33:12.013Z,15.76
2023-10-20T01:35:38.880Z,15.74
2023-10-20T01:38:06.972Z,15.73
2023-10-20T01:40:34.028Z,15.77
2023-10-20T01:43:01.094Z,15.77
2023-10-20T01:45:28.155Z,15.76
2023-10-20T01:47:55.799Z,15.80
2023-10-20T01:50:29.841Z,15.84
2023-10-20T01:52:56.791Z,15.84
2023-10-20T01:55:23.611Z,15.83
2023-10-20T01:57:52.232Z,15.83
2023-10-20T02:00:28.033Z,15.77
2023-10-20T02:02:54.979Z,15.77
2023-10-20T02:05:21.920Z,15.73
2023-10-20T02:07:49.562Z,15.73
2023-10-20T02:10:19.863Z,15.67
2023-10-20T02:12:46.696Z,15.63
2023-10-20T02:15:13.528Z,15.57
2023-10-20T02:17:40.787Z,15.56
2023-10-20T02:20:09.936Z,15.53
2023-10-20T02:22:36.927Z,15.56
2023-10-20T02:25:05.489Z,15.49
2023-10-20T02:27:37.982Z,15.53
2023-10-20T02:30:05.277Z,15.59
2023-10-20T02:32:34.910Z,15.52
2023-10-20T02:35:03.191Z,15.56
2023-10-20T02:37:33.427Z,15.52
2023-10-20T02:40:02.282Z,15.57
2023-10-20T02:42:30.736Z,15.67
2023-10-20T02:44:59.495Z,15.69
2023-10-20T02:47:26.808Z,15.73
2023-10-20T02:49:56.559Z,15.78
2023-10-20T02:52:27.537Z,15.83
2023-10-20T02:54:55.322Z,15.80
2023-10-20T02:57:22.993Z,15.80
2023-10-20T02:59:50.094Z,15.87
2023-10-20T03:02:20.121Z,15.87
2023-10-20T03:04:48.345Z,15.87
2023-10-20T03:07:22.982Z,15.93
2023-10-20T03:09:49.940Z,16.04
2023-10-20T03:12:18.566Z,16.04
2023-10-20T03:14:46.645Z,16.07
2023-10-20T03:17:14.049Z,16.10
2023-10-20T03:19:43.852Z,16.04
2023-10-20T03:22:10.571Z,16.08
2023-10-20T03:24:43.115Z,16.18
2023-10-20T03:27:10.123Z,16.05
2023-10-20T03:29:37.471Z,16.11
2023-10-20T03:32:04.584Z,16.07
2023-10-20T03:34:33.932Z,16.07
2023-10-20T03:37:02.638Z,16.03
2023-10-20T03:39:34.404Z,16.01
2023-10-20T03:42:04.246Z,16.00
2023-10-20T03:44:31.403Z,16.00
2023-10-20T03:46:58.435Z,16.03
2023-10-20T03:49:25.301Z,16.04
2023-10-20T03:51:52.797Z,16.00
2023-10-20T03:54:21.066Z,15.98
2023-10-20T03:56:49.074Z,15.94
2023-10-20T03:59:16.821Z,15.97
2023-10-20T04:01:46.089Z,15.96
2023-10-20T04:04:13.261Z,15.96
2023-10-20T04:06:41.860Z,15.96
2023-10-20T04:09:12.910Z,15.93
2023-10-20T04:11:43.937Z,15.89
2023-10-20T04:14:11.635Z,15.90
2023-10-20T04:16:47.244Z,15.80
2023-10-20T04:19:16.103Z,15.87
2023-10-20T04:21:45.437Z,15.84
2023-10-20T04:24:12.508Z,15.74
2023-10-20T04:26:43.055Z,15.70
2023-10-20T04:29:15.139Z,15.70
2023-10-20T04:32:00.732Z,15.71
2023-10-20T04:34:46.733Z,15.70
2023-10-20T04:37:31.880Z,15.73
2023-10-20T04:40:18.781Z,15.69
2023-10-20T04:43:29.251Z,15.67
2023-10-20T04:46:17.739Z,15.66
2023-10-20T04:49:13.489Z,15.69
2023-10-20T04:51:58.524Z,15.66
2023-10-20T04:54:35.811Z,15.63
2023-10-20T04:57:23.379Z,15.59
2023-10-20T05:00:14.325Z,15.57
2023-10-20T05:02:42.748Z,15.53
2023-10-20T05:05:24.303Z,15.59
2023-10-20T05:07:54.452Z,15.59
2023-10-20T05:10:26.622Z,15.52
2023-10-20T05:12:54.906Z,15.47
2023-10-20T05:15:22.504Z,15.50
2023-10-20T05:17:51.849Z,15.46
2023-10-20T05:20:22.414Z,15.43
2023-10-20T05:22:49.613Z,15.45
2023-10-20T05:25:18.793Z,15.36
2023-10-20T05:27:46.311Z,15.33
2023-10-20T05:30:13.123Z,15.32
2023-10-20T05:32:40.062Z,15.24
2023-10-20T05:35:10.441Z,15.25
2023-10-20T05:37:44.975Z,15.19
2023-10-20T05:40:14.687Z,15.19
2023-10-20T05:45:22.775Z,15.19
2023-10-20T05:47:49.545Z,15.18
2023-10-20T05:52:56.651Z,15.21
2023-10-20T05:55:29.107Z,15.24
2023-10-20T05:58:04.033Z,15.19
2023-10-20T06:00:30.854Z,15.19
2023-10-20T06:02:58.022Z,15.22
2023-10-20T06:05:32.172Z,15.19
2023-10-20T06:07:58.827Z,15.16
2023-10-20T06:10:25.665Z,15.19
2023-10-20T06:12:53.990Z,15.16
2023-10-20T06:15:21.591Z,15.15
2023-10-20T06:17:54.572Z,15.15
2023-10-20T06:20:21.333Z,15.11
2023-10-20T06:22:51.173Z,15.12
2023-10-20T06:25:18.035Z,15.08
2023-10-20T06:27:48.775Z,15.05
2023-10-20T06:33:42.940Z,15.02
2023-10-20T06:36:12.605Z,14.94
2023-10-20T06:38:46.744Z,14.99
2023-10-20T06:41:16.495Z,14.94
2023-10-20T06:43:44.372Z,14.94
2023-10-20T06:46:11.442Z,14.91
2023-10-20T06:48:38.386Z,14.88
2023-10-20T06:51:05.390Z,14.89
2023-10-20T06:53:33.050Z,14.84
2023-10-20T06:56:14.047Z,14.87
2023-10-20T06:58:42.703Z,14.88
2023-10-20T07:01:09.701Z,14.84
2023-10-20T07:03:36.864Z,14.87
2023-10-20T07:06:08.707Z,14.80
2023-10-20T07:08:35.852Z,14.80
2023-10-20T07:11:03.926Z,14.84
2023-10-20T07:13:33.351Z,14.77
2023-10-20T07:16:00.614Z,14.78
2023-10-20T07:18:27.974Z,14.81
2023-10-20T07:23:43.826Z,14.77
2023-10-20T07:26:12.131Z,14.77
2023-10-20T07:28:39.312Z,14.74
2023-10-20T07:31:23.119Z,14.74
2023-10-20T07:33:52.937Z,14.77
2023-10-20T07:36:20.902Z,14.83
2023-10-20T07:38:51.089Z,14.77
2023-10-20T07:41:18.668Z,14.75
2023-10-20T07:43:45.573Z,14.73
2023-10-20T07:46:17.467Z,14.75
2023-10-20T07:48:45.820Z,14.75
2023-10-20T07:51:12.991Z,14.73
2023-10-20T07:53:40.258Z,14.73
2023-10-20T07:56:07.886Z,14.74
2023-10-20T07:58:34.877Z,14.71
2023-10-20T08:01:02.274Z,14.77
2023-10-20T08:03:29.535Z,14.74
2023-10-20T08:05:57.220Z,14.77
2023-10-20T08:08:24.737Z,14.77
2023-10-20T08:10:53.445Z,14.78
2023-10-20T08:13:20.618Z,14.78
2023-10-20T08:15:47.924Z,14.84
2023-10-20T08:18:14.853Z,14.92
2023-10-20T08:20:42.645Z,14.85
2023-10-20T08:23:10.192Z,14.83
2023-10-20T08:25:40.176Z,14.88
2023-10-20T08:28:09.164Z,14.94
2023-10-20T08:30:36.008Z,14.96
2023-10-20T08:33:05.263Z,14.96
2023-10-20T08:35:32.247Z,14.96
2023-10-20T08:37:59.061Z,14.98
2023-10-20T08:40:26.663Z,14.96
2023-10-20T08:42:54.246Z,14.95
2023-10-20T08:45:23.610Z,14.94
2023-10-20T08:47:51.293Z,14.85
2023-10-20T08:50:18.446Z,14.87
2023-10-20T08:52:46.687Z,14.89
2023-10-20T08:55:14.761Z,14.88
2023-10-20T08:57:41.788Z,14.87
2023-10-20T09:00:09.622Z,14.88
2023-10-20T09:02:37.642Z,14.83
2023-10-20T09:05:04.982Z,14.83
2023-10-20T09:07:32.469Z,14.85
2023-10-20T09:09:59.266Z,14.84
2023-10-20T09:12:27.319Z,14.88
2023-10-20T09:14:57.861Z,14.88
2023-10-20T09:17:24.977Z,14.89
2023-10-20T09:19:52.940Z,14.92
2023-10-20T09:22:32.395Z,14.94
2023-10-20T09:24:59.753Z,14.96
2023-10-20T09:27:26.967Z,14.89
2023-10-20T09:29:56.231Z,14.92
2023-10-20T09:32:26.343Z,14.98
2023-10-20T09:34:55.510Z,15.02
2023-10-20T09:37:26.988Z,14.95
2023-10-20T09:39:58.111Z,14.89
2023-10-20T09:42:26.089Z,14.98
2023-10-20T09:45:16.290Z,15.01
2023-10-20T09:47:45.153Z,15.01
2023-10-20T09:50:20.294Z,14.96
2023-10-20T09:52:48.545Z,15.02
2023-10-20T09:55:15.644Z,15.01
2023-10-20T09:57:42.444Z,14.99
2023-10-20T10:00:10.351Z,14.99
2023-10-20T10:02:37.301Z,15.04
2023-10-20T10:05:04.916Z,15.11
2023-10-20T10:07:35.331Z,15.11
2023-10-20T10:10:02.675Z,15.05
2023-10-20T10:12:30.514Z,15.12
2023-10-20T10:15:07.205Z,15.11
2023-10-20T10:17:47.737Z,15.06
2023-10-20T10:20:25.290Z,15.24
2023-10-20T10:23:07.762Z,15.18
2023-10-20T10:25:43.204Z,15.21
2023-10-20T10:28:10.251Z,15.28
2023-10-20T10:30:39.223Z,15.25
2023-10-20T10:33:11.965Z,15.22
2023-10-20T10:35:39.958Z,15.22
2023-10-20T10:38:23.062Z,15.31
2023-10-20T10:40:52.758Z,15.39
2023-10-20T10:43:21.084Z,15.38
2023-10-20T10:45:54.599Z,15.42
2023-10-20T10:48:26.384Z,15.31
2023-10-20T10:50:53.546Z,15.36
2023-10-20T10:53:20.748Z,15.39
2023-10-20T10:55:47.976Z,15.40
2023-10-20T10:58:16.038Z,15.39
2023-10-20T11:00:45.143Z,15.42
2023-10-20T11:03:15.770Z,15.42
2023-10-20T11:05:44.313Z,15.36
2023-10-20T11:08:14.980Z,15.25
2023-10-20T11:10:50.678Z,15.26
2023-10-20T11:13:21.592Z,15.21
2023-10-20T11:15:49.411Z,15.25
2023-10-20T11:18:18.235Z,15.26
2023-10-20T11:20:49.447Z,15.32
2023-10-20T11:23:20.957Z,15.26
2023-10-20T11:25:50.343Z,15.32
2023-10-20T11:28:17.851Z,15.39
2023-10-20T11:30:47.239Z,15.31
2023-10-20T11:33:16.794Z,15.31
2023-10-20T11:35:45.431Z,15.42
2023-10-20T11:38:16.417Z,15.35
2023-10-20T11:40:43.542Z,15.39
2023-10-20T11:43:10.486Z,15.39
2023-10-20T11:45:37.479Z,15.39
2023-10-20T11:48:04.637Z,15.46
2023-10-20T11:50:31.636Z,15.39
2023-10-20T11:52:58.589Z,15.45
2023-10-20T11:55:25.532Z,15.43
2023-10-20T11:57:52.666Z,15.53
2023-10-20T12:00:19.532Z,15.54
2023-10-20T12:02:46.543Z,15.52
2023-10-20T12:05:13.455Z,15.52
2023-10-20T12:07:40.231Z,15.52
2023-10-20T12:10:07.757Z,15.49
2023-10-20T12:12:35.688Z,15.52
2023-10-20T12:15:04.250Z,15.54
2023-10-20T12:17:31.858Z,15.56
2023-10-20T12:19:58.942Z,15.60
2023-10-20T12:22:27.521Z,15.62
2023-10-20T12:24:54.657Z,15.67
2023-10-20T12:27:22.658Z,15.62
2023-10-20T12:29:49.798Z,15.60
2023-10-20T12:32:17.700Z,15.63
2023-10-20T12:34:44.667Z,15.64
2023-10-20T12:37:12.055Z,15.62
2023-10-20T12:39:41.271Z,15.66
2023-10-20T12:42:08.844Z,15.62
2023-10-20T12:44:36.401Z,15.67
2023-10-20T12:47:04.551Z,15.71
2023-10-20T12:49:33.249Z,15.69
2023-10-20T12:52:00.785Z,15.70
2023-10-20T12:54:27.767Z,15.71
2023-10-20T12:56:54.656Z,15.74
2023-10-20T12:59:21.523Z,15.76
2023-10-20T13:01:48.489Z,15.74
2023-10-20T13:04:15.417Z,15.69
2023-10-20T13:06:58.044Z,15.71
2023-10-20T13:09:25.963Z,15.66
2023-10-20T13:11:52.788Z,15.69
2023-10-20T13:14:19.609Z,15.71
2023-10-20T13:16:46.491Z,15.70
2023-10-20T13:19:14.902Z,15.74
2023-10-20T13:21:42.698Z,15.71
2023-10-20T13:24:10.298Z,15.74
2023-10-20T13:26:37.577Z,15.77
2023-10-20T13:29:04.733Z,15.78
2023-10-20T13:31:32.866Z,15.84
2023-10-20T13:34:00.618Z,15.83
2023-10-20T13:36:27.507Z,15.87
2023-10-20T13:38:54.743Z,15.90
2023-10-20T13:41:21.576Z,15.93
2023-10-20T13:43:48.351Z,15.90
2023-10-20T13:46:15.754Z,15.93
2023-10-20T13:48:42.857Z,15.90
2023-10-20T13:51:10.352Z,15.91
2023-10-20T13:53:37.386Z,15.87
2023-10-20T13:56:04.621Z,15.86
2023-10-20T13:58:31.487Z,15.83
2023-10-20T14:00:58.728Z,15.87
2023-10-20T14:03:26.982Z,15.87
2023-10-20T14:05:56.392Z,15.86
2023-10-20T14:08:24.306Z,15.87
2023-10-20T14:10:51.438Z,15.87
2023-10-20T14:13:18.688Z,15.86
2023-10-20T14:15:45.754Z,15.83
2023-10-20T14:18:13.177Z,15.84
2023-10-20T14:20:40.960Z,16.13
2023-10-20T14:23:09.139Z,16.29
2023-10-20T14:25:36.865Z,16.38
2023-10-20T14:28:06.375Z,16.34
2023-10-20T14:30:33.366Z,16.24
2023-10-20T14:33:00.199Z,16.20
2023-10-20T14:35:27.590Z,16.15
2023-10-20T14:37:54.533Z,16.07
2023-10-20T14:40:21.359Z,16.04
2023-10-20T14:42:48.169Z,16.01
2023-10-20T14:45:15.070Z,15.96
2023-10-20T14:47:41.930Z,15.91
2023-10-20T14:50:12.221Z,15.90
2023-10-20T14:52:41.590Z,15.77
2023-10-20T14:55:10.723Z,15.64
2023-10-20T14:57:37.823Z,15.54
2023-10-20T15:00:11.571Z,15.53
2023-10-20T15:02:40.177Z,15.43
2023-10-20T15:05:07.768Z,15.38
2023-10-20T15:07:35.060Z,15.26
2023-10-20T15:10:01.943Z,15.18
2023-10-20T15:12:29.005Z,15.06
2023-10-20T15:14:56.031Z,15.08
2023-10-20T15:17:22.897Z,15.08
2023-10-20T15:19:49.765Z,15.08
2023-10-20T15:22:16.741Z,15.15
2023-10-20T15:24:43.548Z,15.14
2023-10-20T15:27:10.633Z,15.14
2023-10-20T15:29:37.757Z,15.18
2023-10-20T15:32:05.188Z,15.21
2023-10-20T15:34:32.387Z,15.32
2023-10-20T15:36:59.738Z,15.29
2023-10-20T15:39:44.496Z,15.43
2023-10-20T15:42:13.905Z,15.39
2023-10-20T15:44:40.716Z,15.38
2023-10-20T15:47:07.546Z,15.42
2023-10-20T15:49:34.754Z,15.45
2023-10-20T15:52:01.970Z,15.46
2023-10-20T15:54:28.907Z,15.39
2023-10-20T15:56:55.656Z,15.47
2023-10-20T15:59:22.525Z,15.45
2023-10-20T16:01:49.322Z,15.45
2023-10-20T16:04:16.342Z,15.40
2023-10-20T16:06:43.363Z,15.32
2023-10-20T16:09:10.438Z,15.26
2023-10-20T16:11:37.639Z,15.45
2023-10-20T16:14:04.591Z,15.29
2023-10-20T16:16:32.505Z,15.26
2023-10-20T16:18:59.483Z,15.21
2023-10-20T16:21:26.290Z,15.22
2023-10-20T16:23:53.101Z,15.18
2023-10-20T16:26:19.875Z,15.19
2023-10-20T16:28:46.733Z,15.11
2023-10-20T16:31:13.973Z,14.99
2023-10-20T16:33:40.923Z,14.96
2023-10-20T16:36:09.605Z,14.96
2023-10-20T16:38:36.969Z,14.91
2023-10-20T16:41:04.027Z,14.89
2023-10-20T16:43:30.906Z,14.85
2023-10-20T16:45:57.799Z,14.74
2023-10-20T16:48:26.562Z,14.68
2023-10-20T16:50:58.304Z,14.61
2023-10-20T16:53:25.258Z,14.54
2023-10-20T16:55:52.010Z,14.49
2023-10-20T16:58:20.159Z,14.47
2023-10-20T17:00:48.742Z,14.47
2023-10-20T17:03:15.859Z,14.43
2023-10-20T17:05:44.336Z,14.46
2023-10-20T17:08:11.634Z,14.41
2023-10-20T17:10:40.677Z,14.40
2023-10-20T17:13:07.793Z,14.41
2023-10-20T17:15:34.945Z,14.44
2023-10-20T17:18:01.928Z,14.43
2023-10-20T17:20:28.728Z,14.40
2023-10-20T17:22:55.761Z,14.43
2023-10-20T17:25:22.614Z,14.38
2023-10-20T17:27:49.509Z,14.34
2023-10-20T17:30:16.373Z,14.30
2023-10-20T17:32:44.812Z,14.23
2023-10-20T17:35:12.554Z,14.17
2023-10-20T17:37:41.700Z,14.13
2023-10-20T17:40:13.288Z,14.13
2023-10-20T17:42:40.065Z,14.08
2023-10-20T17:45:07.223Z,14.04
2023-10-20T17:47:34.268Z,14.04
2023-10-20T17:50:01.057Z,13.99
2023-10-20T17:52:27.889Z,13.98
2023-10-20T17:58:40.437Z,13.95
2023-10-20T18:01:08.716Z,13.92
2023-10-20T18:03:43.997Z,13.85
2023-10-20T18:06:14.564Z,13.81
2023-10-20T18:08:44.429Z,13.77
2023-10-20T18:11:13.486Z,13.72
2023-10-20T18:13:44.733Z,13.64
2023-10-20T18:16:16.261Z,13.68
2023-10-20T18:18:45.706Z,13.72
2023-10-20T18:21:13.689Z,13.68
2023-10-20T18:23:43.303Z,13.61
2023-10-20T18:26:10.211Z,13.68
2023-10-20T18:28:37.293Z,13.61
2023-10-20T18:31:14.908Z,13.61
2023-10-20T18:33:42.235Z,13.57
2023-10-20T18:36:09.643Z,13.55
2023-10-20T18:38:36.603Z,13.57
2023-10-20T18:41:04.448Z,13.55
2023-10-20T18:43:31.473Z,13.51
2023-10-20T18:46:01.389Z,13.48
2023-10-20T18:48:28.924Z,13.50
2023-10-20T18:51:16.910Z,13.36
2023-10-20T18:53:44.003Z,13.33
2023-10-20T18:56:11.508Z,13.40
2023-10-20T18:58:38.349Z,13.40
2023-10-20T19:01:05.255Z,13.47
2023-10-20T19:03:33.500Z,13.36
2023-10-20T19:06:01.541Z,13.36
2023-10-20T19:08:28.640Z,13.38
2023-10-20T19:10:55.498Z,13.30
2023-10-20T19:13:22.701Z,13.34
2023-10-20T19:15:49.664Z,13.31
2023-10-20T19:18:16.583Z,13.40
2023-10-20T19:20:43.635Z,13.33
2023-10-20T19:23:11.024Z,13.33
2023-10-20T19:25:40.887Z,13.34
2023-10-20T19:28:07.998Z,13.26
2023-10-20T19:30:38.342Z,13.27
2023-10-20T19:33:05.604Z,13.26
2023-10-20T19:35:32.736Z,13.28
2023-10-20T19:38:00.330Z,13.30
2023-10-20T19:40:27.116Z,13.33
2023-10-20T19:42:54.226Z,13.23
2023-10-20T19:45:21.119Z,13.23
2023-10-20T19:47:48.130Z,13.20
2023-10-20T19:50:15.200Z,13.16
2023-10-20T19:52:42.816Z,13.16
2023-10-20T19:55:09.951Z,13.13
2023-10-20T19:57:37.109Z,13.17
2023-10-20T20:00:04.668Z,13.07
2023-10-20T20:02:32.216Z,13.06
2023-10-20T20:04:59.178Z,13.02
2023-10-20T20:07:28.048Z,12.99
2023-10-20T20:09:54.894Z,12.97
2023-10-20T20:12:22.632Z,12.97
2023-10-20T20:14:49.567Z,12.90
2023-10-20T20:17:16.495Z,12.96
2023-10-20T20:19:43.489Z,12.88
2023-10-20T20:22:10.356Z,12.89
2023-10-20T20:24:37.138Z,12.85
2023-10-20T20:27:04.378Z,12.83
2023-10-20T20:29:31.278Z,12.79
2023-10-20T20:31:58.145Z,12.75
2023-10-20T20:34:25.073Z,12.66
2023-10-20T20:36:52.389Z,12.72
2023-10-20T20:39:19.839Z,12.68
2023-10-20T20:41:46.716Z,12.65
2023-10-20T20:44:13.543Z,12.65
2023-10-20T20:46:40.456Z,12.68
2023-10-20T20:49:07.496Z,12.65
2023-10-20T20:51:34.436Z,12.65
2023-10-20T20:54:01.383Z,12.62
2023-10-20T20:56:28.283Z,12.69
2023-10-20T20:58:57.372Z,12.68
2023-10-20T21:01:24.577Z,12.75
2023-10-20T21:03:51.626Z,12.73
2023-10-20T21:06:18.465Z,12.71
2023-10-20T21:08:45.311Z,12.78
2023-10-20T21:11:12.930Z,12.78
2023-10-20T21:13:43.229Z,12.82
2023-10-20T21:16:12.335Z,12.82
2023-10-20T21:18:39.833Z,12.86
2023-10-20T21:21:11.990Z,12.85
2023-10-20T21:23:38.931Z,12.83
2023-10-20T21:26:05.842Z,12.89
2023-10-20T21:28:32.755Z,12.80
2023-10-20T21:31:03.943Z,12.80
2023-10-20T21:33:31.905Z,12.80
2023-10-20T21:35:59.550Z,12.76
2023-10-20T21:38:26.933Z,12.75
2023-10-20T21:40:56.048Z,12.69
2023-10-20T21:43:22.817Z,12.69
2023-10-20T21:45:59.586Z,12.64
2023-10-20T21:48:27.359Z,12.69
2023-10-20T21:50:55.052Z,12.69
2023-10-20T21:53:21.980Z,12.75
2023-10-20T21:55:49.083Z,12.71
2023-10-20T21:58:15.935Z,12.73
2023-10-20T22:00:46.060Z,12.79
2023-10-20T22:03:14.457Z,12.79
2023-10-20T22:05:41.491Z,12.79
2023-10-20T22:08:08.353Z,12.75
2023-10-20T22:10:35.115Z,12.73
2023-10-20T22:13:03.344Z,12.78
2023-10-20T22:15:30.454Z,12.78
2023-10-20T22:17:57.892Z,12.79
2023-10-20T22:20:25.822Z,12.75
2023-10-20T22:22:53.276Z,12.73
2023-10-20T22:25:20.179Z,12.75
2023-10-20T22:27:46.951Z,12.71
2023-10-20T22:30:14.156Z,12.71
2023-10-20T22:32:41.049Z,12.59
2023-10-20T22:35:09.031Z,12.64
2023-10-20T22:37:36.609Z,12.65
2023-10-20T22:40:05.094Z,12.64
2023-10-20T22:42:32.402Z,12.59
2023-10-20T22:44:59.451Z,12.64
2023-10-20T22:47:26.342Z,12.61
2023-10-20T22:49:53.387Z,12.65
2023-10-20T22:52:20.175Z,12.66
2023-10-20T22:54:46.934Z,12.72
2023-10-20T22:57:13.897Z,12.72
2023-10-20T22:59:40.777Z,12.83
2023-10-20T23:02:08.173Z,12.88
2023-10-20T23:04:35.074Z,12.89
2023-10-20T23:07:02.114Z,12.92
2023-10-20T23:09:28.937Z,12.93
2023-10-20T23:11:55.748Z,13.00
2023-10-20T23:14:22.656Z,13.06
2023-10-20T23:16:49.814Z,13.15
2023-10-20T23:19:16.687Z,13.22
2023-10-20T23:21:44.210Z,13.26
2023-10-20T23:24:11.426Z,13.26
2023-10-20T23:26:39.182Z,13.31
2023-10-20T23:29:06.060Z,13.30
2023-10-20T23:31:34.284Z,13.30
2023-10-20T23:34:01.098Z,13.36
2023-10-20T23:36:27.985Z,13.40
2023-10-20T23:38:54.744Z,13.37
2023-10-20T23:41:21.559Z,13.37
2023-10-20T23:43:48.379Z,13.38
2023-10-20T23:46:15.289Z,13.37
2023-10-20T23:48:42.193Z,13.36
2023-10-20T23:51:09.087Z,13.38
2023-10-20T23:53:37.170Z,13.38
2023-10-20T23:56:04.277Z,13.43
